sensor_id;sensor_type;location;lat;lon;timestamp;temperature;humidity
46378;DHT22;32083;47.360;9.650;2023-03-20T00:01:27;8.80;99.90
46378;DHT22;32083;47.360;9.650;2023-03-20T00:03:55;8.80;99.90
46378;DHT22;32083;47.360;9.650;2023-03-20T00:06:23;8.80;99.90
46378;DHT22;32083;47.360;9.650;2023-03-20T00:08:55;8.80;99.90
46378;DHT22;32083;47.360;9.650;2023-03-20T00:11:29;8.80;99.90
46378;DHT22;32083;47.360;9.650;2023-03-20T00:14:09;8.80;99.90
46378;DHT22;32083;47.360;9.650;2023-03-20T00:16:39;8.70;99.90
46378;DHT22;32083;47.360;9.650;2023-03-20T00:19:14;8.70;99.90
46378;DHT22;32083;47.360;9.650;2023-03-20T00:21:43;8.70;99.90
46378;DHT22;32083;47.360;9.650;2023-03-20T00:24:11;8.80;99.90
46378;DHT22;32083;47.360;9.650;2023-03-20T00:26:39;8.80;99.90
46378;DHT22;32083;47.360;9.650;2023-03-20T00:29:09;8.80;99.90
46378;DHT22;32083;47.360;9.650;2023-03-20T00:31:39;8.70;99.90
46378;DHT22;32083;47.360;9.650;2023-03-20T00:34:11;8.80;99.90
46378;DHT22;32083;47.360;9.650;2023-03-20T00:36:37;8.80;99.90
46378;DHT22;32083;47.360;9.650;2023-03-20T00:39:04;8.80;99.90
46378;DHT22;32083;47.360;9.650;2023-03-20T00:46:45;8.80;99.90
46378;DHT22;32083;47.360;9.650;2023-03-20T00:49:12;8.90;99.90
46378;DHT22;32083;47.360;9.650;2023-03-20T00:51:39;8.90;99.90
46378;DHT22;32083;47.360;9.650;2023-03-20T00:54:15;8.90;99.90
46378;DHT22;32083;47.360;9.650;2023-03-20T00:56:48;8.80;99.90
46378;DHT22;32083;47.360;9.650;2023-03-20T00:59:20;8.80;99.90
46378;DHT22;32083;47.360;9.650;2023-03-20T01:01:49;8.90;99.90
46378;DHT22;32083;47.360;9.650;2023-03-20T01:04:17;8.90;99.90
46378;DHT22;32083;47.360;9.650;2023-03-20T01:06:44;8.90;99.90
46378;DHT22;32083;47.360;9.650;2023-03-20T01:09:10;8.90;99.90
46378;DHT22;32083;47.360;9.650;2023-03-20T01:11:37;8.90;99.90
46378;DHT22;32083;47.360;9.650;2023-03-20T01:14:05;8.90;99.90
46378;DHT22;32083;47.360;9.650;2023-03-20T01:16:31;8.90;99.90
46378;DHT22;32083;47.360;9.650;2023-03-20T01:18:58;9.00;99.90
46378;DHT22;32083;47.360;9.650;2023-03-20T01:21:24;8.90;99.90
46378;DHT22;32083;47.360;9.650;2023-03-20T01:23:50;8.90;99.90
46378;DHT22;32083;47.360;9.650;2023-03-20T01:26:35;8.90;99.90
46378;DHT22;32083;47.360;9.650;2023-03-20T01:29:02;8.90;99.90
46378;DHT22;32083;47.360;9.650;2023-03-20T01:31:28;8.90;99.90
46378;DHT22;32083;47.360;9.650;2023-03-20T01:33:54;8.90;99.90
46378;DHT22;32083;47.360;9.650;2023-03-20T01:36:22;8.90;99.90
46378;DHT22;32083;47.360;9.650;2023-03-20T01:38:54;8.90;99.90
46378;DHT22;32083;47.360;9.650;2023-03-20T01:41:23;8.90;99.90
46378;DHT22;32083;47.360;9.650;2023-03-20T01:43:49;8.90;99.90
46378;DHT22;32083;47.360;9.650;2023-03-20T01:46:22;8.90;99.90
46378;DHT22;32083;47.360;9.650;2023-03-20T01:50:09;8.90;99.90
46378;DHT22;32083;47.360;9.650;2023-03-20T01:51:51;8.90;99.90
46378;DHT22;32083;47.360;9.650;2023-03-20T01:56:58;8.80;99.90
46378;DHT22;32083;47.360;9.650;2023-03-20T01:59:49;8.80;99.90
46378;DHT22;32083;47.360;9.650;2023-03-20T02:02:23;8.80;99.90
46378;DHT22;32083;47.360;9.650;2023-03-20T02:04:54;8.80;99.90
46378;DHT22;32083;47.360;9.650;2023-03-20T02:07:21;8.80;99.90
46378;DHT22;32083;47.360;9.650;2023-03-20T02:09:48;8.80;99.90
46378;DHT22;32083;47.360;9.650;2023-03-20T02:12:15;8.80;99.90
46378;DHT22;32083;47.360;9.650;2023-03-20T02:14:44;8.70;99.90
46378;DHT22;32083;47.360;9.650;2023-03-20T02:17:12;8.80;99.90
46378;DHT22;32083;47.360;9.650;2023-03-20T02:20:13;8.70;99.90
46378;DHT22;32083;47.360;9.650;2023-03-20T02:26:05;8.70;99.90
46378;DHT22;32083;47.360;9.650;2023-03-20T02:37:57;8.50;99.90
46378;DHT22;32083;47.360;9.650;2023-03-20T02:48:43;8.50;99.90
46378;DHT22;32083;47.360;9.650;2023-03-20T02:51:14;8.60;99.90
46378;DHT22;32083;47.360;9.650;2023-03-20T02:59:47;8.60;99.90
46378;DHT22;32083;47.360;9.650;2023-03-20T03:02:32;8.60;99.90
46378;DHT22;32083;47.360;9.650;2023-03-20T03:05:06;8.70;99.90
46378;DHT22;32083;47.360;9.650;2023-03-20T03:07:34;8.70;99.90
46378;DHT22;32083;47.360;9.650;2023-03-20T03:10:06;8.70;99.90
46378;DHT22;32083;47.360;9.650;2023-03-20T03:12:36;8.70;99.90
46378;DHT22;32083;47.360;9.650;2023-03-20T03:15:06;8.70;99.90
46378;DHT22;32083;47.360;9.650;2023-03-20T03:17:37;8.70;99.90
46378;DHT22;32083;47.360;9.650;2023-03-20T03:20:11;8.70;99.90
46378;DHT22;32083;47.360;9.650;2023-03-20T03:22:39;8.70;99.90
46378;DHT22;32083;47.360;9.650;2023-03-20T03:25:05;8.80;99.90
46378;DHT22;32083;47.360;9.650;2023-03-20T03:27:37;8.80;99.90
46378;DHT22;32083;47.360;9.650;2023-03-20T03:30:11;8.80;99.90
46378;DHT22;32083;47.360;9.650;2023-03-20T03:35:16;8.70;99.90
46378;DHT22;32083;47.360;9.650;2023-03-20T03:41:09;8.70;99.90
46378;DHT22;32083;47.360;9.650;2023-03-20T03:44:04;8.60;99.90
46378;DHT22;32083;47.360;9.650;2023-03-20T03:46:43;8.60;99.90
46378;DHT22;32083;47.360;9.650;2023-03-20T03:49:15;8.50;99.90
46378;DHT22;32083;47.360;9.650;2023-03-20T03:51:44;8.50;99.90
46378;DHT22;32083;47.360;9.650;2023-03-20T03:54:41;8.40;99.90
46378;DHT22;32083;47.360;9.650;2023-03-20T03:57:10;8.50;99.90
46378;DHT22;32083;47.360;9.650;2023-03-20T03:59:40;8.50;99.90
46378;DHT22;32083;47.360;9.650;2023-03-20T04:02:08;8.50;99.90
46378;DHT22;32083;47.360;9.650;2023-03-20T04:04:37;8.50;99.90
46378;DHT22;32083;47.360;9.650;2023-03-20T04:07:06;8.60;99.90
46378;DHT22;32083;47.360;9.650;2023-03-20T04:09:32;8.60;99.90
46378;DHT22;32083;47.360;9.650;2023-03-20T04:11:58;8.60;99.90
46378;DHT22;32083;47.360;9.650;2023-03-20T04:14:24;8.70;99.90
46378;DHT22;32083;47.360;9.650;2023-03-20T04:16:50;8.70;99.90
46378;DHT22;32083;47.360;9.650;2023-03-20T04:19:16;8.70;99.90
46378;DHT22;32083;47.360;9.650;2023-03-20T04:21:41;8.70;99.90
46378;DHT22;32083;47.360;9.650;2023-03-20T04:24:07;8.70;99.90
46378;DHT22;32083;47.360;9.650;2023-03-20T04:26:33;8.70;99.90
46378;DHT22;32083;47.360;9.650;2023-03-20T04:28:59;8.70;99.90
46378;DHT22;32083;47.360;9.650;2023-03-20T04:31:25;8.70;99.90
46378;DHT22;32083;47.360;9.650;2023-03-20T04:33:53;8.70;99.90
46378;DHT22;32083;47.360;9.650;2023-03-20T04:36:18;8.70;99.90
46378;DHT22;32083;47.360;9.650;2023-03-20T04:38:44;8.70;99.90
46378;DHT22;32083;47.360;9.650;2023-03-20T04:41:10;8.70;99.90
46378;DHT22;32083;47.360;9.650;2023-03-20T04:43:36;8.70;99.90
46378;DHT22;32083;47.360;9.650;2023-03-20T04:46:01;8.70;99.90
46378;DHT22;32083;47.360;9.650;2023-03-20T04:48:27;8.70;99.90
46378;DHT22;32083;47.360;9.650;2023-03-20T04:50:53;8.70;99.90
46378;DHT22;32083;47.360;9.650;2023-03-20T04:53:19;8.70;99.90
46378;DHT22;32083;47.360;9.650;2023-03-20T04:55:45;8.70;99.90
46378;DHT22;32083;47.360;9.650;2023-03-20T04:58:14;8.70;99.90
46378;DHT22;32083;47.360;9.650;2023-03-20T05:00:40;8.60;99.90
46378;DHT22;32083;47.360;9.650;2023-03-20T05:03:05;8.60;99.90
46378;DHT22;32083;47.360;9.650;2023-03-20T05:05:31;8.70;99.90
46378;DHT22;32083;47.360;9.650;2023-03-20T05:07:58;8.60;99.90
46378;DHT22;32083;47.360;9.650;2023-03-20T05:10:24;8.60;99.90
46378;DHT22;32083;47.360;9.650;2023-03-20T05:12:50;8.60;99.90
46378;DHT22;32083;47.360;9.650;2023-03-20T05:15:16;8.70;99.90
46378;DHT22;32083;47.360;9.650;2023-03-20T05:17:42;8.70;99.90
46378;DHT22;32083;47.360;9.650;2023-03-20T05:20:08;8.60;99.90
46378;DHT22;32083;47.360;9.650;2023-03-20T05:22:34;8.60;99.90
46378;DHT22;32083;47.360;9.650;2023-03-20T05:25:00;8.60;99.90
46378;DHT22;32083;47.360;9.650;2023-03-20T05:27:26;8.60;99.90
46378;DHT22;32083;47.360;9.650;2023-03-20T05:29:55;8.50;99.90
46378;DHT22;32083;47.360;9.650;2023-03-20T05:32:20;8.60;99.90
46378;DHT22;32083;47.360;9.650;2023-03-20T05:34:46;8.60;99.90
46378;DHT22;32083;47.360;9.650;2023-03-20T05:37:12;8.70;99.90
46378;DHT22;32083;47.360;9.650;2023-03-20T05:39:38;8.70;99.90
46378;DHT22;32083;47.360;9.650;2023-03-20T05:42:04;8.70;99.90
46378;DHT22;32083;47.360;9.650;2023-03-20T05:44:30;8.80;99.90
46378;DHT22;32083;47.360;9.650;2023-03-20T05:46:56;8.70;99.90
46378;DHT22;32083;47.360;9.650;2023-03-20T05:49:21;8.70;99.90
46378;DHT22;32083;47.360;9.650;2023-03-20T05:51:47;8.70;99.90
46378;DHT22;32083;47.360;9.650;2023-03-20T05:54:13;8.70;99.90
46378;DHT22;32083;47.360;9.650;2023-03-20T05:56:39;8.70;99.90
46378;DHT22;32083;47.360;9.650;2023-03-20T05:59:05;8.80;99.90
46378;DHT22;32083;47.360;9.650;2023-03-20T06:01:30;8.80;99.90
46378;DHT22;32083;47.360;9.650;2023-03-20T06:03:56;8.80;99.90
46378;DHT22;32083;47.360;9.650;2023-03-20T06:06:22;8.80;99.90
46378;DHT22;32083;47.360;9.650;2023-03-20T06:08:48;8.80;99.90
46378;DHT22;32083;47.360;9.650;2023-03-20T06:11:13;8.80;99.90
46378;DHT22;32083;47.360;9.650;2023-03-20T06:13:40;8.80;99.90
46378;DHT22;32083;47.360;9.650;2023-03-20T06:16:06;8.80;99.90
46378;DHT22;32083;47.360;9.650;2023-03-20T06:18:32;8.80;99.90
46378;DHT22;32083;47.360;9.650;2023-03-20T06:20:58;8.80;99.90
46378;DHT22;32083;47.360;9.650;2023-03-20T06:23:23;8.70;99.90
46378;DHT22;32083;47.360;9.650;2023-03-20T06:25:49;8.70;99.90
46378;DHT22;32083;47.360;9.650;2023-03-20T06:28:15;8.70;99.90
46378;DHT22;32083;47.360;9.650;2023-03-20T06:30:42;8.80;99.90
46378;DHT22;32083;47.360;9.650;2023-03-20T06:33:08;8.70;99.90
46378;DHT22;32083;47.360;9.650;2023-03-20T06:35:34;8.70;99.90
46378;DHT22;32083;47.360;9.650;2023-03-20T06:38:00;8.80;99.90
46378;DHT22;32083;47.360;9.650;2023-03-20T06:40:26;8.80;99.90
46378;DHT22;32083;47.360;9.650;2023-03-20T06:42:53;8.90;99.90
46378;DHT22;32083;47.360;9.650;2023-03-20T06:45:19;8.90;99.90
46378;DHT22;32083;47.360;9.650;2023-03-20T06:47:46;8.90;99.90
46378;DHT22;32083;47.360;9.650;2023-03-20T06:50:13;9.00;99.90
46378;DHT22;32083;47.360;9.650;2023-03-20T06:52:39;9.00;99.90
46378;DHT22;32083;47.360;9.650;2023-03-20T06:55:06;9.00;99.90
46378;DHT22;32083;47.360;9.650;2023-03-20T06:57:44;8.90;99.90
46378;DHT22;32083;47.360;9.650;2023-03-20T07:00:11;8.90;99.90
46378;DHT22;32083;47.360;9.650;2023-03-20T07:02:37;8.90;99.90
46378;DHT22;32083;47.360;9.650;2023-03-20T07:05:03;9.00;99.90
46378;DHT22;32083;47.360;9.650;2023-03-20T07:07:29;9.00;99.90
46378;DHT22;32083;47.360;9.650;2023-03-20T07:09:55;9.00;99.90
46378;DHT22;32083;47.360;9.650;2023-03-20T07:12:21;9.10;99.90
46378;DHT22;32083;47.360;9.650;2023-03-20T07:14:51;9.10;99.90
46378;DHT22;32083;47.360;9.650;2023-03-20T07:17:16;9.10;99.90
46378;DHT22;32083;47.360;9.650;2023-03-20T07:19:42;9.20;99.90
46378;DHT22;32083;47.360;9.650;2023-03-20T07:22:46;9.10;99.90
46378;DHT22;32083;47.360;9.650;2023-03-20T07:25:07;9.00;99.90
46378;DHT22;32083;47.360;9.650;2023-03-20T07:27:34;9.10;99.90
46378;DHT22;32083;47.360;9.650;2023-03-20T07:30:01;9.10;99.90
46378;DHT22;32083;47.360;9.650;2023-03-20T07:32:27;9.20;99.90
46378;DHT22;32083;47.360;9.650;2023-03-20T07:34:53;9.10;99.90
46378;DHT22;32083;47.360;9.650;2023-03-20T07:37:19;9.10;99.90
46378;DHT22;32083;47.360;9.650;2023-03-20T07:39:45;9.20;99.90
46378;DHT22;32083;47.360;9.650;2023-03-20T07:42:11;9.10;99.90
46378;DHT22;32083;47.360;9.650;2023-03-20T07:44:38;9.20;99.90
46378;DHT22;32083;47.360;9.650;2023-03-20T07:47:05;9.20;99.90
46378;DHT22;32083;47.360;9.650;2023-03-20T07:49:32;9.20;99.90
46378;DHT22;32083;47.360;9.650;2023-03-20T07:51:58;9.20;99.90
46378;DHT22;32083;47.360;9.650;2023-03-20T07:54:24;9.30;99.90
46378;DHT22;32083;47.360;9.650;2023-03-20T07:56:50;9.30;99.90
46378;DHT22;32083;47.360;9.650;2023-03-20T07:59:16;9.40;99.90
46378;DHT22;32083;47.360;9.650;2023-03-20T08:01:42;9.40;99.90
46378;DHT22;32083;47.360;9.650;2023-03-20T08:04:08;9.40;99.90
46378;DHT22;32083;47.360;9.650;2023-03-20T08:06:34;9.50;99.90
46378;DHT22;32083;47.360;9.650;2023-03-20T08:09:01;9.50;99.90
46378;DHT22;32083;47.360;9.650;2023-03-20T08:11:27;9.60;99.90
46378;DHT22;32083;47.360;9.650;2023-03-20T08:13:53;9.60;99.90
46378;DHT22;32083;47.360;9.650;2023-03-20T08:16:19;9.60;99.90
46378;DHT22;32083;47.360;9.650;2023-03-20T08:18:45;9.60;99.90
46378;DHT22;32083;47.360;9.650;2023-03-20T08:21:11;9.70;99.90
46378;DHT22;32083;47.360;9.650;2023-03-20T08:23:37;9.80;99.90
46378;DHT22;32083;47.360;9.650;2023-03-20T08:26:03;9.90;99.90
46378;DHT22;32083;47.360;9.650;2023-03-20T08:28:29;9.90;99.90
46378;DHT22;32083;47.360;9.650;2023-03-20T08:30:55;9.90;99.90
46378;DHT22;32083;47.360;9.650;2023-03-20T08:33:20;9.90;99.90
46378;DHT22;32083;47.360;9.650;2023-03-20T08:35:57;10.00;99.90
46378;DHT22;32083;47.360;9.650;2023-03-20T08:38:23;10.20;99.90
46378;DHT22;32083;47.360;9.650;2023-03-20T08:40:50;10.20;99.90
46378;DHT22;32083;47.360;9.650;2023-03-20T08:43:16;10.30;99.90
46378;DHT22;32083;47.360;9.650;2023-03-20T08:45:42;10.40;99.90
46378;DHT22;32083;47.360;9.650;2023-03-20T08:48:08;10.50;99.90
46378;DHT22;32083;47.360;9.650;2023-03-20T08:50:34;10.50;99.90
46378;DHT22;32083;47.360;9.650;2023-03-20T08:53:00;10.60;99.90
46378;DHT22;32083;47.360;9.650;2023-03-20T08:55:26;10.70;99.90
46378;DHT22;32083;47.360;9.650;2023-03-20T08:57:52;10.80;99.90
46378;DHT22;32083;47.360;9.650;2023-03-20T09:00:19;10.90;99.90
46378;DHT22;32083;47.360;9.650;2023-03-20T09:02:45;10.80;99.90
46378;DHT22;32083;47.360;9.650;2023-03-20T09:05:11;10.80;99.90
46378;DHT22;32083;47.360;9.650;2023-03-20T09:07:37;10.70;99.90
46378;DHT22;32083;47.360;9.650;2023-03-20T09:10:04;10.80;99.90
46378;DHT22;32083;47.360;9.650;2023-03-20T09:12:30;10.90;99.90
46378;DHT22;32083;47.360;9.650;2023-03-20T09:14:58;10.80;99.90
46378;DHT22;32083;47.360;9.650;2023-03-20T09:17:24;10.90;99.90
46378;DHT22;32083;47.360;9.650;2023-03-20T09:19:51;10.80;99.90
46378;DHT22;32083;47.360;9.650;2023-03-20T09:22:17;10.70;99.90
46378;DHT22;32083;47.360;9.650;2023-03-20T09:24:44;10.70;99.90
46378;DHT22;32083;47.360;9.650;2023-03-20T09:27:10;10.60;99.90
46378;DHT22;32083;47.360;9.650;2023-03-20T09:29:39;10.70;99.90
46378;DHT22;32083;47.360;9.650;2023-03-20T09:32:05;10.70;99.90
46378;DHT22;32083;47.360;9.650;2023-03-20T09:34:31;10.50;99.90
46378;DHT22;32083;47.360;9.650;2023-03-20T09:36:57;10.50;99.90
46378;DHT22;32083;47.360;9.650;2023-03-20T09:39:23;10.50;99.90
46378;DHT22;32083;47.360;9.650;2023-03-20T09:41:50;10.60;99.90
46378;DHT22;32083;47.360;9.650;2023-03-20T09:44:39;10.80;99.90
46378;DHT22;32083;47.360;9.650;2023-03-20T09:53:03;10.80;99.90
46378;DHT22;32083;47.360;9.650;2023-03-20T09:55:35;10.90;99.90
46378;DHT22;32083;47.360;9.650;2023-03-20T10:00:34;11.00;99.90
46378;DHT22;32083;47.360;9.650;2023-03-20T10:03:05;11.00;99.90
46378;DHT22;32083;47.360;9.650;2023-03-20T10:06:06;11.10;99.90
46378;DHT22;32083;47.360;9.650;2023-03-20T10:08:37;11.10;99.90
46378;DHT22;32083;47.360;9.650;2023-03-20T10:21:50;11.10;99.90
46378;DHT22;32083;47.360;9.650;2023-03-20T10:27:33;11.30;99.90
46378;DHT22;32083;47.360;9.650;2023-03-20T10:32:36;11.30;99.90
46378;DHT22;32083;47.360;9.650;2023-03-20T10:40:50;11.30;99.90
46378;DHT22;32083;47.360;9.650;2023-03-20T10:43:20;11.20;99.90
46378;DHT22;32083;47.360;9.650;2023-03-20T10:45:51;11.30;99.90
46378;DHT22;32083;47.360;9.650;2023-03-20T10:50:55;11.50;99.90
46378;DHT22;32083;47.360;9.650;2023-03-20T10:53:40;11.60;99.90
46378;DHT22;32083;47.360;9.650;2023-03-20T10:56:20;11.60;99.90
46378;DHT22;32083;47.360;9.650;2023-03-20T10:58:49;11.70;99.90
46378;DHT22;32083;47.360;9.650;2023-03-20T11:01:18;11.70;99.90
46378;DHT22;32083;47.360;9.650;2023-03-20T11:03:45;11.80;99.90
46378;DHT22;32083;47.360;9.650;2023-03-20T11:06:45;11.70;99.90
46378;DHT22;32083;47.360;9.650;2023-03-20T11:09:20;11.70;99.90
46378;DHT22;32083;47.360;9.650;2023-03-20T11:11:47;11.70;99.90
46378;DHT22;32083;47.360;9.650;2023-03-20T11:14:22;11.80;99.90
46378;DHT22;32083;47.360;9.650;2023-03-20T11:16:53;11.90;99.90
46378;DHT22;32083;47.360;9.650;2023-03-20T11:19:20;12.00;99.90
46378;DHT22;32083;47.360;9.650;2023-03-20T11:21:55;11.90;99.90
46378;DHT22;32083;47.360;9.650;2023-03-20T11:24:26;12.10;99.90
46378;DHT22;32083;47.360;9.650;2023-03-20T11:27:08;12.40;99.90
46378;DHT22;32083;47.360;9.650;2023-03-20T11:29:35;12.30;99.90
46378;DHT22;32083;47.360;9.650;2023-03-20T11:32:07;12.30;99.90
46378;DHT22;32083;47.360;9.650;2023-03-20T11:34:40;12.30;99.90
46378;DHT22;32083;47.360;9.650;2023-03-20T11:37:22;12.30;99.90
46378;DHT22;32083;47.360;9.650;2023-03-20T11:40:34;12.40;99.90
46378;DHT22;32083;47.360;9.650;2023-03-20T11:45:25;12.40;99.90
46378;DHT22;32083;47.360;9.650;2023-03-20T11:47:54;12.60;99.90
46378;DHT22;32083;47.360;9.650;2023-03-20T11:50:42;12.50;99.90
46378;DHT22;32083;47.360;9.650;2023-03-20T11:53:36;12.30;99.90
46378;DHT22;32083;47.360;9.650;2023-03-20T11:58:32;12.40;99.90
46378;DHT22;32083;47.360;9.650;2023-03-20T12:01:00;12.50;99.90
46378;DHT22;32083;47.360;9.650;2023-03-20T12:09:46;12.40;99.90
46378;DHT22;32083;47.360;9.650;2023-03-20T12:14:55;12.60;99.90
46378;DHT22;32083;47.360;9.650;2023-03-20T12:19:55;12.60;99.90
46378;DHT22;32083;47.360;9.650;2023-03-20T12:22:36;12.50;99.90
46378;DHT22;32083;47.360;9.650;2023-03-20T12:25:20;12.70;99.90
46378;DHT22;32083;47.360;9.650;2023-03-20T12:27:54;12.80;99.90
46378;DHT22;32083;47.360;9.650;2023-03-20T12:31:02;12.90;99.90
46378;DHT22;32083;47.360;9.650;2023-03-20T12:36:16;13.00;99.00
46378;DHT22;32083;47.360;9.650;2023-03-20T12:38:44;12.90;99.10
46378;DHT22;32083;47.360;9.650;2023-03-20T12:45:35;12.90;99.10
46378;DHT22;32083;47.360;9.650;2023-03-20T12:47:37;12.90;98.90
46378;DHT22;32083;47.360;9.650;2023-03-20T12:50:30;12.80;98.90
46378;DHT22;32083;47.360;9.650;2023-03-20T13:06:55;13.10;98.50
46378;DHT22;32083;47.360;9.650;2023-03-20T13:09:50;13.00;98.00
46378;DHT22;32083;47.360;9.650;2023-03-20T13:12:25;13.00;97.40
46378;DHT22;32083;47.360;9.650;2023-03-20T13:23:11;13.20;98.70
46378;DHT22;32083;47.360;9.650;2023-03-20T13:28:44;13.30;98.50
46378;DHT22;32083;47.360;9.650;2023-03-20T13:36:41;13.30;99.00
46378;DHT22;32083;47.360;9.650;2023-03-20T13:39:24;13.30;98.30
46378;DHT22;32083;47.360;9.650;2023-03-20T13:41:52;13.50;98.40
46378;DHT22;32083;47.360;9.650;2023-03-20T13:44:22;13.40;98.30
46378;DHT22;32083;47.360;9.650;2023-03-20T13:46:57;13.30;97.60
46378;DHT22;32083;47.360;9.650;2023-03-20T13:49:26;13.40;97.60
46378;DHT22;32083;47.360;9.650;2023-03-20T13:52:13;13.40;98.50
46378;DHT22;32083;47.360;9.650;2023-03-20T13:55:04;13.40;97.60
46378;DHT22;32083;47.360;9.650;2023-03-20T14:00:45;13.60;97.20
46378;DHT22;32083;47.360;9.650;2023-03-20T14:03:30;13.60;96.80
46378;DHT22;32083;47.360;9.650;2023-03-20T14:05:57;13.70;96.50
46378;DHT22;32083;47.360;9.650;2023-03-20T14:13:57;13.70;96.60
46378;DHT22;32083;47.360;9.650;2023-03-20T14:16:27;13.80;97.20
46378;DHT22;32083;47.360;9.650;2023-03-20T14:19:07;13.80;95.90
46378;DHT22;32083;47.360;9.650;2023-03-20T14:21:34;13.60;96.20
46378;DHT22;32083;47.360;9.650;2023-03-20T14:24:05;13.80;96.10
46378;DHT22;32083;47.360;9.650;2023-03-20T14:26:37;13.90;96.10
46378;DHT22;32083;47.360;9.650;2023-03-20T14:31:36;13.80;96.20
46378;DHT22;32083;47.360;9.650;2023-03-20T14:36:57;13.90;95.70
46378;DHT22;32083;47.360;9.650;2023-03-20T14:47:51;13.80;96.70
46378;DHT22;32083;47.360;9.650;2023-03-20T15:04:07;13.50;96.30
46378;DHT22;32083;47.360;9.650;2023-03-20T15:06:34;13.50;96.70
46378;DHT22;32083;47.360;9.650;2023-03-20T15:09:09;13.40;96.60
46378;DHT22;32083;47.360;9.650;2023-03-20T15:11:36;13.40;96.40
46378;DHT22;32083;47.360;9.650;2023-03-20T15:14:05;13.40;96.60
46378;DHT22;32083;47.360;9.650;2023-03-20T15:16:34;13.30;96.40
46378;DHT22;32083;47.360;9.650;2023-03-20T15:19:02;13.40;96.10
46378;DHT22;32083;47.360;9.650;2023-03-20T15:21:35;13.30;96.50
46378;DHT22;32083;47.360;9.650;2023-03-20T15:24:01;13.30;96.80
46378;DHT22;32083;47.360;9.650;2023-03-20T15:26:28;13.30;96.60
46378;DHT22;32083;47.360;9.650;2023-03-20T15:29:06;13.20;96.60
46378;DHT22;32083;47.360;9.650;2023-03-20T15:31:35;13.20;96.80
46378;DHT22;32083;47.360;9.650;2023-03-20T15:34:06;13.30;96.80
46378;DHT22;32083;47.360;9.650;2023-03-20T15:36:34;13.20;96.50
46378;DHT22;32083;47.360;9.650;2023-03-20T15:39:17;13.30;96.40
46378;DHT22;32083;47.360;9.650;2023-03-20T15:42:08;13.20;96.20
46378;DHT22;32083;47.360;9.650;2023-03-20T15:44:36;13.10;96.90
46378;DHT22;32083;47.360;9.650;2023-03-20T15:49:37;13.10;96.70
46378;DHT22;32083;47.360;9.650;2023-03-20T15:52:27;13.10;96.60
46378;DHT22;32083;47.360;9.650;2023-03-20T15:54:56;13.00;96.60
46378;DHT22;32083;47.360;9.650;2023-03-20T15:57:34;13.00;96.70
46378;DHT22;32083;47.360;9.650;2023-03-20T16:00:13;13.00;96.50
46378;DHT22;32083;47.360;9.650;2023-03-20T16:02:44;13.10;96.70
46378;DHT22;32083;47.360;9.650;2023-03-20T16:05:12;13.00;96.90
46378;DHT22;32083;47.360;9.650;2023-03-20T16:07:39;13.00;97.00
46378;DHT22;32083;47.360;9.650;2023-03-20T16:10:20;12.90;97.20
46378;DHT22;32083;47.360;9.650;2023-03-20T16:12:51;13.00;96.90
46378;DHT22;32083;47.360;9.650;2023-03-20T16:15:20;12.90;96.30
46378;DHT22;32083;47.360;9.650;2023-03-20T16:17:54;12.90;96.50
46378;DHT22;32083;47.360;9.650;2023-03-20T16:20:22;12.90;96.70
46378;DHT22;32083;47.360;9.650;2023-03-20T16:22:59;12.90;96.80
46378;DHT22;32083;47.360;9.650;2023-03-20T16:25:26;13.00;96.60
46378;DHT22;32083;47.360;9.650;2023-03-20T16:27:52;12.90;96.90
46378;DHT22;32083;47.360;9.650;2023-03-20T16:30:24;12.90;96.70
46378;DHT22;32083;47.360;9.650;2023-03-20T16:33:00;12.90;96.50
46378;DHT22;32083;47.360;9.650;2023-03-20T16:35:36;13.00;96.30
46378;DHT22;32083;47.360;9.650;2023-03-20T16:40:45;13.00;96.70
46378;DHT22;32083;47.360;9.650;2023-03-20T16:43:17;12.90;96.40
46378;DHT22;32083;47.360;9.650;2023-03-20T16:45:51;12.90;96.50
46378;DHT22;32083;47.360;9.650;2023-03-20T16:48:31;12.90;96.70
46378;DHT22;32083;47.360;9.650;2023-03-20T16:51:15;12.90;96.60
46378;DHT22;32083;47.360;9.650;2023-03-20T16:53:54;12.80;96.60
46378;DHT22;32083;47.360;9.650;2023-03-20T16:56:35;12.80;97.00
46378;DHT22;32083;47.360;9.650;2023-03-20T16:59:09;12.70;96.40
46378;DHT22;32083;47.360;9.650;2023-03-20T17:01:41;12.70;96.60
46378;DHT22;32083;47.360;9.650;2023-03-20T17:04:18;12.60;96.50
46378;DHT22;32083;47.360;9.650;2023-03-20T17:07:05;12.60;96.60
46378;DHT22;32083;47.360;9.650;2023-03-20T17:09:32;12.50;96.60
46378;DHT22;32083;47.360;9.650;2023-03-20T17:12:16;12.40;96.70
46378;DHT22;32083;47.360;9.650;2023-03-20T17:14:43;12.30;96.70
46378;DHT22;32083;47.360;9.650;2023-03-20T17:17:13;12.30;96.80
46378;DHT22;32083;47.360;9.650;2023-03-20T17:19:39;12.30;97.10
46378;DHT22;32083;47.360;9.650;2023-03-20T17:22:26;12.30;97.20
46378;DHT22;32083;47.360;9.650;2023-03-20T17:24:55;12.20;97.30
46378;DHT22;32083;47.360;9.650;2023-03-20T17:27:21;12.10;97.40
46378;DHT22;32083;47.360;9.650;2023-03-20T17:29:48;12.00;97.60
46378;DHT22;32083;47.360;9.650;2023-03-20T17:32:17;12.00;97.70
46378;DHT22;32083;47.360;9.650;2023-03-20T17:34:44;11.90;97.90
46378;DHT22;32083;47.360;9.650;2023-03-20T17:37:25;11.80;97.90
46378;DHT22;32083;47.360;9.650;2023-03-20T17:39:52;11.80;97.90
46378;DHT22;32083;47.360;9.650;2023-03-20T17:42:23;11.80;98.10
46378;DHT22;32083;47.360;9.650;2023-03-20T17:44:52;11.80;98.10
46378;DHT22;32083;47.360;9.650;2023-03-20T17:47:22;11.70;98.00
46378;DHT22;32083;47.360;9.650;2023-03-20T17:49:49;11.60;97.90
46378;DHT22;32083;47.360;9.650;2023-03-20T17:52:26;11.60;97.70
46378;DHT22;32083;47.360;9.650;2023-03-20T17:54:53;11.60;97.70
46378;DHT22;32083;47.360;9.650;2023-03-20T17:57:32;11.60;97.90
46378;DHT22;32083;47.360;9.650;2023-03-20T17:59:59;11.60;97.80
46378;DHT22;32083;47.360;9.650;2023-03-20T18:02:26;11.50;97.90
46378;DHT22;32083;47.360;9.650;2023-03-20T18:04:52;11.50;97.80
46378;DHT22;32083;47.360;9.650;2023-03-20T18:07:18;11.50;97.90
46378;DHT22;32083;47.360;9.650;2023-03-20T18:09:44;11.40;98.00
46378;DHT22;32083;47.360;9.650;2023-03-20T18:12:12;11.40;98.10
46378;DHT22;32083;47.360;9.650;2023-03-20T18:14:38;11.40;98.40
46378;DHT22;32083;47.360;9.650;2023-03-20T18:17:04;11.30;98.60
46378;DHT22;32083;47.360;9.650;2023-03-20T18:19:30;11.20;98.90
46378;DHT22;32083;47.360;9.650;2023-03-20T18:21:57;11.20;99.20
46378;DHT22;32083;47.360;9.650;2023-03-20T18:24:24;11.20;99.30
46378;DHT22;32083;47.360;9.650;2023-03-20T18:26:51;11.10;99.60
46378;DHT22;32083;47.360;9.650;2023-03-20T18:29:18;11.10;99.80
46378;DHT22;32083;47.360;9.650;2023-03-20T18:31:45;11.00;99.90
46378;DHT22;32083;47.360;9.650;2023-03-20T18:34:11;11.00;99.90
46378;DHT22;32083;47.360;9.650;2023-03-20T18:36:37;11.00;99.90
46378;DHT22;32083;47.360;9.650;2023-03-20T18:39:04;11.00;99.90
46378;DHT22;32083;47.360;9.650;2023-03-20T18:41:31;10.90;99.90
46378;DHT22;32083;47.360;9.650;2023-03-20T18:43:57;10.90;99.90
46378;DHT22;32083;47.360;9.650;2023-03-20T18:46:24;10.80;99.90